Terminal Aerodrome Forecast
Issued by NWS

Home | Current Version | Previous Version | Text Only | Print | Product List | Glossary On
Versions: 1 2 3 4 5 6 7 8 9 10 11 12 13
000
FTUS44 KTSA 270500
TAFMLC
TAF
KMLC 270520Z 2706/2806 02009KT P6SM BKN100
     FM271200 05010KT P6SM BKN035 BKN090 PROB30 2721/2803 4SM -SN
      OVC030
     FM280300 05005KT P6SM OVC050=

USA.gov is the U.S. government's official web portal to all federal, state and local government web resources and services.